Time;durP1;ratioP1;P1;durP2;ratioP2;P2;SDS_P1;SDS_P2;PMS_P1;PMS_P2;Temp;Humidity;BMP_temperature;BMP_pressure;BME280_temperature;BME280_humidity;BME280_pressure;Samples;Min_cycle;Max_cycle;Signal;HPM_P1;HPM_P2
2022/01/17 00:01:51;;;;;;;17.83;3.47;;;6.30;99.90;;;;;;5056573;28;20045;-68
2022/01/17 00:04:17;;;;;;;14.23;2.67;;;6.30;99.90;;;;;;5057310;28;20120;-68
2022/01/17 00:06:43;;;;;;;21.95;3.13;;;6.30;99.90;;;;;;5054904;28;20408;-68
2022/01/17 00:09:10;;;;;;;13.68;3.42;;;6.30;99.90;;;;;;5056390;28;20041;-68
2022/01/17 00:11:41;;;;;;;23.25;4.28;;;6.30;99.90;;;;;;5056410;28;20412;-68
2022/01/17 00:14:11;;;;;;;16.45;2.92;;;6.30;99.90;;;;;;5056458;28;20426;-68
2022/01/17 00:16:44;;;;;;;24.48;2.90;;;6.30;99.90;;;;;;5056058;28;20041;-69
2022/01/17 00:21:48;;;;;;;14.90;3.03;;;6.30;99.90;;;;;;5055003;28;20056;-68
2022/01/17 00:24:14;;;;;;;19.17;3.03;;;6.40;99.90;;;;;;5056297;28;20041;-68
2022/01/17 00:26:40;;;;;;;15.50;2.65;;;6.30;99.90;;;;;;5055844;28;20037;-68
2022/01/17 00:29:05;;;;;;;24.73;4.35;;;6.30;99.90;;;;;;5055040;28;20044;-68
2022/01/17 00:31:31;;;;;;;15.57;3.55;;;6.40;99.90;;;;;;5055160;28;20116;-68
2022/01/17 00:33:57;;;;;;;15.70;2.58;;;6.40;99.90;;;;;;5054869;28;20098;-68
2022/01/17 00:36:23;;;;;;;15.45;3.80;;;6.40;99.90;;;;;;5055852;28;20036;-68
2022/01/17 00:38:49;;;;;;;12.23;2.67;;;6.40;99.90;;;;;;5055749;28;20045;-69
2022/01/17 00:41:14;;;;;;;16.23;2.95;;;6.40;99.90;;;;;;5054928;28;20052;-69
2022/01/17 00:43:40;;;;;;;19.05;3.10;;;6.40;99.90;;;;;;5055861;28;20175;-68
2022/01/17 00:46:05;;;;;;;14.00;3.50;;;6.40;99.90;;;;;;5055800;28;20079;-68
2022/01/17 00:48:31;;;;;;;17.70;3.20;;;6.40;99.90;;;;;;5055782;28;20033;-68
2022/01/17 00:50:57;;;;;;;17.02;3.00;;;6.40;99.90;;;;;;5054569;28;20500;-68
2022/01/17 00:53:22;;;;;;;23.90;3.63;;;6.30;99.90;;;;;;5055921;28;20044;-68
2022/01/17 00:55:48;;;;;;;9.85;2.90;;;6.30;99.90;;;;;;5055266;28;20475;-68
2022/01/17 00:58:13;;;;;;;20.30;3.42;;;6.30;99.90;;;;;;5054605;28;20037;-69
2022/01/17 01:00:41;;;;;;;23.65;4.05;;;6.30;99.90;;;;;;5055892;28;20470;-69
2022/01/17 01:03:06;;;;;;;20.35;3.45;;;6.30;99.90;;;;;;5055293;28;20041;-68
2022/01/17 01:05:33;;;;;;;14.77;3.03;;;6.20;99.90;;;;;;5054985;28;20128;-68
2022/01/17 01:07:59;;;;;;;24.35;3.35;;;6.30;99.90;;;;;;5055539;28;20052;-68
2022/01/17 01:10:24;;;;;;;19.15;3.45;;;6.30;99.90;;;;;;5055640;28;20037;-68
2022/01/17 01:12:51;;;;;;;18.67;3.58;;;6.20;99.90;;;;;;5055410;28;20044;-68
2022/01/17 01:15:34;;;;;;;18.60;4.15;;;6.20;99.90;;;;;;5055195;28;20162;-68
2022/01/17 01:18:02;;;;;;;17.20;3.47;;;6.20;99.90;;;;;;5054372;28;20045;-68
2022/01/17 01:28:42;;;;;;;21.92;4.05;;;6.20;99.90;;;;;;5055504;28;20041;-68
2022/01/17 01:31:14;;;;;;;14.68;3.67;;;6.20;99.90;;;;;;5055022;28;20093;-68
2022/01/17 01:33:43;;;;;;;21.08;3.35;;;6.20;99.90;;;;;;5055265;28;20052;-68
2022/01/17 01:36:23;;;;;;;15.98;3.03;;;6.20;99.90;;;;;;5054640;28;20044;-68
2022/01/17 01:38:49;;;;;;;13.63;2.50;;;6.20;99.90;;;;;;5055331;28;20049;-69
2022/01/17 01:41:15;;;;;;;15.55;3.30;;;6.30;99.90;;;;;;5053843;28;20045;-68
2022/01/17 01:43:40;;;;;;;10.75;2.78;;;6.30;99.90;;;;;;5054673;28;20041;-68
2022/01/17 01:46:06;;;;;;;16.30;3.50;;;6.30;99.90;;;;;;5054588;28;20040;-67
2022/01/17 01:48:34;;;;;;;17.52;3.15;;;6.30;99.90;;;;;;5053465;28;20047;-67
2022/01/17 01:51:00;;;;;;;19.83;3.53;;;6.20;99.90;;;;;;5053612;28;20504;-67
2022/01/17 01:53:27;;;;;;;12.82;3.10;;;6.20;99.90;;;;;;5054781;28;20045;-67
2022/01/17 01:55:55;;;;;;;17.63;2.80;;;6.20;99.90;;;;;;5052784;28;20423;-67
2022/01/17 01:58:23;;;;;;;21.05;3.45;;;6.20;99.90;;;;;;5053493;28;20087;-67
2022/01/17 02:00:49;;;;;;;15.98;3.22;;;6.10;99.90;;;;;;5053944;28;20041;-67
2022/01/17 02:03:15;;;;;;;12.52;2.60;;;6.10;99.90;;;;;;5054751;28;20512;-67
2022/01/17 02:05:40;;;;;;;13.88;3.03;;;6.20;99.90;;;;;;5054349;28;20577;-67
2022/01/17 02:08:09;;;;;;;18.23;3.40;;;6.10;99.90;;;;;;5054714;28;20041;-67
2022/01/17 02:10:35;;;;;;;14.85;2.20;;;6.10;99.90;;;;;;5053069;28;20041;-67
2022/01/17 02:13:01;;;;;;;16.38;3.17;;;6.10;99.90;;;;;;5054401;28;20504;-67
2022/01/17 02:15:26;;;;;;;12.25;2.63;;;6.00;99.90;;;;;;5054254;28;20036;-67
2022/01/17 02:17:57;;;;;;;16.73;2.67;;;6.00;99.90;;;;;;5052574;28;20048;-67
2022/01/17 02:20:45;;;;;;;14.32;2.58;;;6.00;99.90;;;;;;5053084;28;20076;-67
2022/01/17 02:23:13;;;;;;;13.75;3.28;;;6.00;99.90;;;;;;5053861;28;20405;-67
2022/01/17 02:25:39;;;;;;;25.65;3.95;;;6.00;99.90;;;;;;5053663;28;20405;-67
2022/01/17 02:28:05;;;;;;;20.27;3.33;;;5.90;99.90;;;;;;5054452;28;20029;-67
2022/01/17 02:30:31;;;;;;;17.60;3.40;;;5.90;99.90;;;;;;5054694;28;20070;-67
2022/01/17 02:33:01;;;;;;;15.70;3.75;;;5.90;99.90;;;;;;5054294;28;20045;-67
2022/01/17 02:35:27;;;;;;;18.88;3.97;;;6.00;99.90;;;;;;5054082;28;20052;-67
2022/01/17 02:37:53;;;;;;;22.55;4.15;;;6.00;99.90;;;;;;5053582;28;20045;-67
2022/01/17 02:40:20;;;;;;;12.70;3.45;;;6.00;99.90;;;;;;5053618;28;20183;-67
2022/01/17 02:43:02;;;;;;;16.60;3.08;;;6.00;99.90;;;;;;5054076;28;20049;-67
2022/01/17 02:45:33;;;;;;;13.85;4.07;;;6.10;99.90;;;;;;5053619;28;20036;-67
2022/01/17 02:48:02;;;;;;;13.40;3.00;;;6.00;99.90;;;;;;5053676;28;20052;-67
2022/01/17 02:50:28;;;;;;;15.60;3.05;;;6.00;99.90;;;;;;5053457;28;20059;-67
2022/01/17 02:52:58;;;;;;;14.00;3.22;;;6.00;99.90;;;;;;5053907;28;20481;-67
2022/01/17 02:55:24;;;;;;;19.27;3.17;;;6.10;99.90;;;;;;5053309;28;20044;-67
2022/01/17 02:57:50;;;;;;;18.38;3.80;;;6.00;99.90;;;;;;5051995;28;20043;-67
2022/01/17 03:00:15;;;;;;;17.27;3.05;;;6.00;99.90;;;;;;5053645;28;20059;-67
2022/01/17 03:02:42;;;;;;;16.05;3.67;;;5.90;99.90;;;;;;5053295;28;20044;-67
2022/01/17 03:05:10;;;;;;;15.88;2.55;;;6.10;99.90;;;;;;5052463;28;20037;-67
2022/01/17 03:07:36;;;;;;;13.77;2.97;;;6.00;99.90;;;;;;5053262;28;20033;-67
2022/01/17 03:10:04;;;;;;;17.52;3.42;;;6.10;99.90;;;;;;5053571;28;20119;-67
2022/01/17 03:12:30;;;;;;;18.85;3.00;;;6.00;99.90;;;;;;5053779;28;20102;-67
2022/01/17 03:14:57;;;;;;;24.50;4.07;;;6.10;99.90;;;;;;5053137;28;20033;-67
2022/01/17 03:17:22;;;;;;;16.77;4.07;;;6.00;99.90;;;;;;5053061;28;20052;-67
2022/01/17 03:19:48;;;;;;;18.50;2.85;;;6.00;99.90;;;;;;5052408;28;20037;-67
2022/01/17 03:22:14;;;;;;;39.80;3.88;;;6.00;99.90;;;;;;5054548;28;20049;-67
2022/01/17 03:24:39;;;;;;;20.67;3.25;;;6.00;99.90;;;;;;5057216;28;20037;-67
2022/01/17 03:27:05;;;;;;;16.95;2.85;;;6.00;99.90;;;;;;5056969;28;20080;-67
2022/01/17 03:29:31;;;;;;;14.38;2.95;;;6.00;99.90;;;;;;5057323;28;20040;-67
2022/01/17 03:31:56;;;;;;;15.63;3.55;;;6.00;99.90;;;;;;5055914;28;20037;-67
2022/01/17 03:34:22;;;;;;;16.25;4.38;;;6.00;99.90;;;;;;5057199;28;20060;-67
2022/01/17 03:36:48;;;;;;;23.13;3.60;;;6.10;99.90;;;;;;5056872;28;20037;-67
2022/01/17 03:39:14;;;;;;;12.23;2.45;;;6.00;99.90;;;;;;5056828;28;20515;-67
2022/01/17 03:41:40;;;;;;;25.27;4.15;;;6.10;99.90;;;;;;5055688;28;20045;-67
2022/01/17 03:44:07;;;;;;;15.77;3.35;;;6.00;99.90;;;;;;5056966;28;20372;-67
2022/01/17 03:46:32;;;;;;;22.52;3.10;;;6.20;99.90;;;;;;5056632;28;20049;-67
2022/01/17 03:48:58;;;;;;;20.02;3.70;;;6.20;99.90;;;;;;5055501;28;20112;-67
2022/01/17 03:51:24;;;;;;;22.50;3.00;;;6.10;99.90;;;;;;5056016;28;20044;-67
2022/01/17 03:53:49;;;;;;;25.90;3.75;;;6.10;99.90;;;;;;5057398;28;20074;-67
2022/01/17 03:56:16;;;;;;;22.83;3.80;;;6.10;99.90;;;;;;5056356;28;20385;-67
2022/01/17 03:58:42;;;;;;;18.73;3.88;;;6.10;99.90;;;;;;5056991;28;20052;-67
2022/01/17 04:01:09;;;;;;;19.67;3.20;;;6.10;99.90;;;;;;5056690;28;20158;-67
2022/01/17 04:03:34;;;;;;;16.50;3.25;;;6.10;99.90;;;;;;5055531;28;20488;-67
2022/01/17 04:06:00;;;;;;;11.50;2.83;;;6.10;99.90;;;;;;5056177;28;20037;-67
2022/01/17 04:08:26;;;;;;;17.33;3.25;;;6.10;99.90;;;;;;5056797;28;20044;-67
2022/01/17 04:10:52;;;;;;;17.00;2.88;;;6.00;99.90;;;;;;5056069;28;20119;-67
2022/01/17 04:13:18;;;;;;;14.98;2.85;;;6.00;99.90;;;;;;5056656;28;20040;-67
2022/01/17 04:15:44;;;;;;;12.38;3.20;;;6.10;99.90;;;;;;5056101;28;20070;-67
2022/01/17 04:18:11;;;;;;;17.80;3.75;;;6.10;99.90;;;;;;5056632;28;20037;-67
2022/01/17 04:20:38;;;;;;;22.42;3.28;;;6.00;99.90;;;;;;5056474;28;20095;-67
2022/01/17 04:23:07;;;;;;;24.67;3.42;;;5.90;99.90;;;;;;5055596;28;20036;-67
2022/01/17 04:25:34;;;;;;;19.60;2.72;;;5.90;99.90;;;;;;5056176;28;20037;-68
2022/01/17 04:28:01;;;;;;;8.70;2.70;;;6.00;99.90;;;;;;5056520;28;20072;-67
2022/01/17 04:30:28;;;;;;;14.20;3.67;;;6.00;99.90;;;;;;5056263;28;20458;-67
2022/01/17 04:32:54;;;;;;;18.65;3.28;;;6.00;99.90;;;;;;5056380;28;20051;-67
2022/01/17 04:35:21;;;;;;;16.23;3.22;;;6.00;99.90;;;;;;5054745;28;20041;-67
2022/01/17 04:37:49;;;;;;;12.57;2.97;;;6.00;99.90;;;;;;5055870;28;20408;-67
2022/01/17 04:40:14;;;;;;;17.70;3.40;;;6.10;99.90;;;;;;5056232;28;20048;-67
2022/01/17 04:42:45;;;;;;;15.95;3.58;;;6.10;99.90;;;;;;5055904;28;20401;-67
2022/01/17 04:45:13;;;;;;;14.27;3.78;;;6.10;99.90;;;;;;5055877;28;20044;-67
2022/01/17 04:47:40;;;;;;;12.85;2.22;;;6.20;99.90;;;;;;5055390;28;20045;-67
2022/01/17 04:50:13;;;;;;;13.18;3.22;;;6.20;99.90;;;;;;5055622;28;20481;-67
2022/01/17 04:52:39;;;;;;;17.85;2.83;;;6.30;99.90;;;;;;5056425;28;20041;-67
2022/01/17 04:55:08;;;;;;;21.15;3.78;;;6.30;99.90;;;;;;5055748;28;20044;-68
2022/01/17 04:57:33;;;;;;;11.32;2.50;;;6.30;99.90;;;;;;5055395;28;20549;-67
2022/01/17 04:59:59;;;;;;;10.57;2.58;;;6.30;99.90;;;;;;5055748;28;20140;-67
2022/01/17 05:02:25;;;;;;;16.85;2.58;;;6.30;99.90;;;;;;5055879;28;20501;-67
2022/01/17 05:04:51;;;;;;;18.63;3.03;;;6.40;99.90;;;;;;5054035;28;20043;-67
2022/01/17 05:07:17;;;;;;;13.82;2.58;;;6.50;99.90;;;;;;5054954;28;20116;-67
2022/01/17 05:09:44;;;;;;;12.05;3.20;;;6.50;99.90;;;;;;5055311;28;20509;-67
2022/01/17 05:12:10;;;;;;;19.15;3.92;;;6.40;99.90;;;;;;5053951;28;20558;-67
2022/01/17 05:14:40;;;;;;;18.95;3.22;;;6.50;99.90;;;;;;5053906;28;20044;-67
2022/01/17 05:17:23;;;;;;;15.73;3.00;;;6.60;99.90;;;;;;5054909;28;20036;-67
2022/01/17 05:19:49;;;;;;;13.68;2.65;;;6.60;99.90;;;;;;5055055;28;20466;-67
2022/01/17 05:22:18;;;;;;;10.23;2.78;;;6.50;99.90;;;;;;5055324;28;20044;-67
2022/01/17 05:24:45;;;;;;;15.18;2.92;;;6.60;99.90;;;;;;5054229;28;20071;-67
2022/01/17 05:27:11;;;;;;;9.80;2.90;;;6.60;99.90;;;;;;5054806;28;20033;-67
2022/01/17 05:29:37;;;;;;;23.50;3.35;;;6.70;99.90;;;;;;5055761;28;20033;-67
2022/01/17 05:32:03;;;;;;;11.80;3.53;;;6.70;99.90;;;;;;5055405;28;20431;-67
2022/01/17 05:34:29;;;;;;;13.93;2.92;;;6.70;99.90;;;;;;5053580;28;20049;-67
2022/01/17 05:36:54;;;;;;;21.10;5.15;;;6.70;99.90;;;;;;5054797;28;20056;-67
2022/01/17 05:39:20;;;;;;;19.40;3.15;;;6.80;99.90;;;;;;5054670;28;20114;-68
2022/01/17 05:41:46;;;;;;;18.75;3.95;;;6.80;99.90;;;;;;5055235;28;20059;-67
2022/01/17 05:44:11;;;;;;;24.17;4.30;;;6.80;99.90;;;;;;5054373;28;20037;-67
2022/01/17 05:46:37;;;;;;;14.85;3.92;;;6.80;99.90;;;;;;5054318;28;20044;-67
2022/01/17 05:49:03;;;;;;;14.68;3.58;;;6.80;99.90;;;;;;5053181;28;20047;-67
2022/01/17 05:51:28;;;;;;;16.20;4.60;;;6.80;99.90;;;;;;5054945;28;20427;-67
2022/01/17 05:53:54;;;;;;;19.92;3.13;;;6.80;99.90;;;;;;5054892;28;20389;-67
2022/01/17 05:56:20;;;;;;;26.20;4.65;;;6.80;99.90;;;;;;5054313;28;20112;-67
2022/01/17 05:58:45;;;;;;;18.20;3.92;;;6.80;99.90;;;;;;5054330;28;20048;-67
2022/01/17 06:01:13;;;;;;;24.75;4.50;;;6.90;99.90;;;;;;5054858;28;20072;-67
2022/01/17 06:03:38;;;;;;;18.00;4.80;;;6.90;99.90;;;;;;5054300;28;20095;-67
2022/01/17 06:06:05;;;;;;;24.25;5.28;;;6.90;99.90;;;;;;5052613;28;20041;-67
2022/01/17 06:08:31;;;;;;;14.25;4.13;;;6.90;99.90;;;;;;5054258;28;20084;-67
2022/01/17 06:10:57;;;;;;;19.80;4.40;;;7.00;99.90;;;;;;5054169;28;20068;-67
2022/01/17 06:13:22;;;;;;;14.45;4.28;;;7.00;99.90;;;;;;5053280;28;20060;-67
2022/01/17 06:15:48;;;;;;;15.07;5.28;;;6.90;99.90;;;;;;5060390;28;20045;-66
2022/01/17 06:18:13;;;;;;;23.63;3.90;;;6.90;99.90;;;;;;5061695;28;20046;-67
2022/01/17 06:20:39;;;;;;;23.45;4.80;;;7.10;99.90;;;;;;5083021;28;20119;-67
2022/01/17 06:23:04;;;;;;;23.67;5.82;;;7.00;99.90;;;;;;5082275;28;20068;-67
2022/01/17 06:25:30;;;;;;;18.02;4.60;;;7.10;99.90;;;;;;5078182;28;20052;-67
2022/01/17 06:27:55;;;;;;;23.48;4.85;;;7.00;99.90;;;;;;5073675;28;20489;-67
2022/01/17 06:30:21;;;;;;;19.77;4.35;;;7.00;99.90;;;;;;5074618;28;20051;-66
2022/01/17 06:32:47;;;;;;;21.58;4.70;;;7.00;99.90;;;;;;5072427;28;20562;-67
2022/01/17 06:35:12;;;;;;;22.17;5.25;;;7.10;99.90;;;;;;5072335;28;20048;-69
2022/01/17 06:37:39;;;;;;;23.50;4.57;;;7.00;99.90;;;;;;5073461;28;20075;-70
2022/01/17 06:40:07;;;;;;;20.65;4.97;;;7.10;99.90;;;;;;5073791;28;20040;-70
2022/01/17 06:42:33;;;;;;;21.60;4.65;;;7.10;99.90;;;;;;5073342;28;20056;-70
2022/01/17 06:45:03;;;;;;;24.05;4.60;;;7.00;99.90;;;;;;5072126;28;20036;-70
2022/01/17 06:47:32;;;;;;;26.45;4.90;;;7.00;99.90;;;;;;5071741;28;20040;-70
2022/01/17 06:49:58;;;;;;;33.35;5.50;;;7.00;99.90;;;;;;5073818;28;20124;-70
2022/01/17 06:52:24;;;;;;;27.33;6.25;;;7.00;99.90;;;;;;5072140;28;20068;-70
2022/01/17 06:54:52;;;;;;;17.33;4.80;;;7.00;99.90;;;;;;5074077;28;20377;-70
2022/01/17 06:57:18;;;;;;;23.50;4.80;;;7.00;99.90;;;;;;5072091;28;20389;-70
2022/01/17 06:59:44;;;;;;;21.65;5.75;;;7.10;99.90;;;;;;5055348;28;20040;-70
2022/01/17 07:02:09;;;;;;;20.63;5.28;;;7.00;99.90;;;;;;5073126;28;20140;-70
2022/01/17 07:04:35;;;;;;;23.88;5.32;;;7.00;99.90;;;;;;5073357;28;20044;-70
2022/01/17 07:07:01;;;;;;;20.88;5.43;;;7.00;99.90;;;;;;5073025;28;20040;-70
2022/01/17 07:09:29;;;;;;;26.15;5.72;;;7.10;99.90;;;;;;5073095;28;20127;-70
2022/01/17 07:11:58;;;;;;;22.25;6.18;;;7.00;99.90;;;;;;5073907;28;20047;-70
2022/01/17 07:14:28;;;;;;;30.13;6.38;;;7.10;99.90;;;;;;5073878;28;20044;-70
2022/01/17 07:16:53;;;;;;;24.15;4.93;;;7.10;99.90;;;;;;5073237;28;20033;-70
2022/01/17 07:19:19;;;;;;;22.38;5.35;;;7.10;99.90;;;;;;5071775;28;20047;-70
2022/01/17 07:21:45;;;;;;;27.00;5.45;;;7.10;99.90;;;;;;5072029;28;20392;-70
2022/01/17 07:24:10;;;;;;;25.77;6.00;;;7.00;99.90;;;;;;5073584;28;20041;-70
2022/01/17 07:26:36;;;;;;;26.15;5.97;;;7.10;99.90;;;;;;5073009;28;20069;-70
2022/01/17 07:29:05;;;;;;;20.88;4.82;;;7.10;99.90;;;;;;5055113;28;20054;-70
2022/01/17 07:31:31;;;;;;;24.88;4.60;;;7.00;99.90;;;;;;5072984;28;20051;-70
2022/01/17 07:33:57;;;;;;;30.77;6.45;;;7.00;99.90;;;;;;5071919;28;20044;-71
2022/01/17 07:36:23;;;;;;;31.63;5.82;;;7.10;99.90;;;;;;5072975;28;20040;-70
2022/01/17 07:38:49;;;;;;;25.73;4.90;;;7.20;99.90;;;;;;5071750;28;20044;-70
2022/01/17 07:41:15;;;;;;;20.80;4.43;;;7.20;99.90;;;;;;5073782;28;20530;-70
2022/01/17 07:43:42;;;;;;;25.85;6.78;;;7.20;99.90;;;;;;5072999;28;20439;-71
2022/01/17 07:46:17;;;;;;;27.75;4.53;;;7.20;99.90;;;;;;5071785;28;20045;-71
2022/01/17 07:51:26;;;;;;;25.98;5.32;;;7.20;99.90;;;;;;5072807;28;20114;-71
2022/01/17 07:53:53;;;;;;;28.40;4.75;;;7.20;99.90;;;;;;5071804;28;20456;-70
2022/01/17 07:56:18;;;;;;;36.47;5.68;;;7.30;99.90;;;;;;5072667;28;20072;-71
2022/01/17 07:58:44;;;;;;;26.67;6.05;;;7.30;99.90;;;;;;5072415;28;20082;-70
2022/01/17 08:01:11;;;;;;;29.60;6.72;;;7.30;99.90;;;;;;5072999;28;20472;-71
2022/01/17 08:03:36;;;;;;;38.85;5.75;;;7.20;99.90;;;;;;5071369;28;20450;-71
2022/01/17 08:06:02;;;;;;;26.38;6.07;;;7.30;99.90;;;;;;5071086;28;20072;-71
2022/01/17 08:08:28;;;;;;;36.67;6.95;;;7.40;99.90;;;;;;5074450;28;20040;-70
2022/01/17 08:10:53;;;;;;;37.08;8.02;;;7.40;99.90;;;;;;5075167;28;20044;-71
2022/01/17 08:13:19;;;;;;;32.10;6.90;;;7.40;99.90;;;;;;5076364;28;20051;-71
2022/01/17 08:15:46;;;;;;;35.90;5.72;;;7.40;99.90;;;;;;5074671;28;20036;-71
2022/01/17 08:18:13;;;;;;;28.88;5.78;;;7.40;99.90;;;;;;5076153;28;20129;-70
2022/01/17 08:20:39;;;;;;;36.28;5.97;;;7.50;99.90;;;;;;5076030;28;20051;-70
2022/01/17 08:23:05;;;;;;;28.90;4.88;;;7.50;99.90;;;;;;5076317;28;20048;-71
2022/01/17 08:25:31;;;;;;;28.23;6.18;;;7.50;99.90;;;;;;5075992;28;20408;-71
2022/01/17 08:27:57;;;;;;;25.98;5.38;;;7.50;99.90;;;;;;5076347;28;20032;-71
2022/01/17 08:30:23;;;;;;;30.40;7.38;;;7.50;99.90;;;;;;5076121;28;20051;-70
2022/01/17 08:32:50;;;;;;;41.60;6.57;;;7.60;99.90;;;;;;5074883;28;20059;-71
2022/01/17 08:35:16;;;;;;;33.80;7.72;;;7.60;99.90;;;;;;5074701;28;20459;-71
2022/01/17 08:37:42;;;;;;;30.67;5.53;;;7.60;99.90;;;;;;5075790;28;20083;-70
2022/01/17 08:40:08;;;;;;;36.55;6.55;;;7.70;99.90;;;;;;5074510;28;20068;-71
2022/01/17 08:42:36;;;;;;;43.22;7.68;;;7.70;99.90;;;;;;5074645;28;20045;-71
2022/01/17 08:45:04;;;;;;;27.63;5.95;;;7.80;99.90;;;;;;5074933;28;20079;-70
2022/01/17 08:47:31;;;;;;;32.97;6.50;;;7.80;99.90;;;;;;5075939;28;20036;-70
2022/01/17 08:49:56;;;;;;;35.42;6.70;;;7.90;99.90;;;;;;5074474;28;20076;-70
2022/01/17 08:52:22;;;;;;;34.63;7.32;;;7.90;99.90;;;;;;5057710;28;20083;-70
2022/01/17 08:54:48;;;;;;;32.08;6.22;;;7.90;99.90;;;;;;5074598;28;20055;-71
2022/01/17 08:57:14;;;;;;;30.25;6.32;;;7.90;99.90;;;;;;5075362;28;20036;-70
2022/01/17 08:59:40;;;;;;;45.92;7.28;;;8.00;99.90;;;;;;5075587;28;20438;-70
2022/01/17 09:02:06;;;;;;;31.23;6.32;;;7.90;99.90;;;;;;5075618;28;20036;-71
2022/01/17 09:04:32;;;;;;;28.80;7.70;;;7.90;99.90;;;;;;5075618;28;20024;-71
2022/01/17 09:06:58;;;;;;;34.00;6.05;;;7.90;99.90;;;;;;5073817;28;20040;-70
2022/01/17 09:09:24;;;;;;;29.38;5.65;;;8.10;99.90;;;;;;5075615;28;20054;-70
2022/01/17 09:11:50;;;;;;;37.53;7.63;;;8.20;99.90;;;;;;5075632;28;20041;-70
2022/01/17 09:14:15;;;;;;;22.25;5.68;;;8.20;99.90;;;;;;5075242;28;20075;-70
2022/01/17 09:16:41;;;;;;;32.20;6.80;;;8.20;99.90;;;;;;5057070;28;20066;-70
2022/01/17 09:19:07;;;;;;;37.28;7.28;;;8.30;99.90;;;;;;5074671;28;20044;-70
2022/01/17 09:21:34;;;;;;;46.17;8.40;;;8.40;99.90;;;;;;5074912;28;20066;-70
2022/01/17 09:24:00;;;;;;;42.25;6.53;;;8.40;99.90;;;;;;5074236;28;20051;-70
2022/01/17 09:26:26;;;;;;;37.22;7.68;;;8.40;99.90;;;;;;5074711;28;20128;-70
2022/01/17 09:28:52;;;;;;;32.08;6.32;;;8.50;99.90;;;;;;5075157;28;20036;-70
2022/01/17 09:31:18;;;;;;;39.67;6.35;;;8.50;99.90;;;;;;5074948;28;20036;-70
2022/01/17 09:33:43;;;;;;;28.58;6.20;;;8.60;99.90;;;;;;5074782;28;20055;-70
2022/01/17 09:36:09;;;;;;;37.55;6.40;;;8.70;99.90;;;;;;5074831;28;20119;-69
2022/01/17 09:38:35;;;;;;;37.25;6.70;;;8.70;99.90;;;;;;5074883;28;20477;-70
2022/01/17 09:41:01;;;;;;;37.13;8.45;;;8.80;99.90;;;;;;5075573;28;20028;-70
2022/01/17 09:43:27;;;;;;;35.78;7.07;;;8.80;99.90;;;;;;5074983;28;20094;-70
2022/01/17 09:45:52;;;;;;;36.75;7.32;;;8.80;99.90;;;;;;5074437;28;20055;-70
2022/01/17 09:48:21;;;;;;;35.95;6.32;;;8.80;99.90;;;;;;5075044;28;20039;-70
2022/01/17 09:51:02;;;;;;;34.75;8.38;;;8.90;99.90;;;;;;5074550;28;20449;-70
2022/01/17 09:53:28;;;;;;;44.47;6.65;;;8.90;99.90;;;;;;5074667;28;20101;-70
2022/01/17 09:55:58;;;;;;;33.72;7.60;;;8.80;99.90;;;;;;5072801;28;20118;-70
2022/01/17 09:58:26;;;;;;;37.70;7.65;;;8.90;99.90;;;;;;5074341;28;20067;-70
2022/01/17 10:00:51;;;;;;;44.28;7.70;;;9.00;99.90;;;;;;5073148;28;20392;-70
2022/01/17 10:03:17;;;;;;;42.85;8.15;;;9.00;99.90;;;;;;5072937;28;20037;-70
2022/01/17 10:05:43;;;;;;;38.72;7.53;;;9.00;99.90;;;;;;5073922;28;20041;-70
2022/01/17 10:08:11;;;;;;;36.58;7.78;;;8.90;99.90;;;;;;5074068;28;20480;-70
2022/01/17 10:10:38;;;;;;;30.05;9.02;;;9.00;99.90;;;;;;5074268;28;20040;-70
2022/01/17 10:13:10;;;;;;;38.88;8.25;;;9.10;99.90;;;;;;5073715;28;20036;-70
2022/01/17 10:15:45;;;;;;;50.45;8.23;;;9.10;99.90;;;;;;5074207;28;20043;-70
2022/01/17 10:18:30;;;;;;;40.22;8.45;;;9.10;99.90;;;;;;5073291;28;20423;-70
2022/01/17 10:21:04;;;;;;;47.05;8.90;;;9.10;99.90;;;;;;5073900;28;20036;-70
2022/01/17 10:23:48;;;;;;;45.65;7.93;;;9.20;99.90;;;;;;5072615;28;20076;-70
2022/01/17 10:29:13;;;;;;;34.58;7.93;;;9.20;99.90;;;;;;5072494;28;20045;-70
2022/01/17 10:35:05;;;;;;;45.63;7.35;;;9.20;99.90;;;;;;5074436;28;19943;-70
2022/01/17 10:37:13;;;;;;;47.90;10.18;;;9.30;99.90;;;;;;5069131;28;20084;-71
2022/01/17 10:40:03;;;;;;;40.40;9.93;;;9.30;99.90;;;;;;5073511;28;20041;-70
2022/01/17 10:42:41;;;;;;;59.60;9.93;;;9.40;99.90;;;;;;5072988;28;20098;-70
2022/01/17 10:45:15;;;;;;;43.97;7.43;;;9.40;99.90;;;;;;5072770;28;20048;-70
2022/01/17 10:47:45;;;;;;;44.15;8.60;;;9.40;99.90;;;;;;5072404;28;20136;-70
2022/01/17 10:50:18;;;;;;;41.35;7.93;;;9.50;99.90;;;;;;5074082;28;20036;-70
2022/01/17 10:53:05;;;;;;;41.47;8.82;;;9.40;99.90;;;;;;5073660;28;20047;-70
2022/01/17 10:55:38;;;;;;;40.47;7.22;;;9.40;99.90;;;;;;5073356;28;20044;-70
2022/01/17 10:58:09;;;;;;;45.42;9.05;;;9.40;99.90;;;;;;5073606;28;20074;-70
2022/01/17 11:00:44;;;;;;;33.83;7.55;;;9.40;99.90;;;;;;5072189;28;20048;-69
2022/01/17 11:03:12;;;;;;;40.47;7.65;;;9.40;99.90;;;;;;5072136;28;20507;-70
2022/01/17 11:05:41;;;;;;;49.72;8.25;;;9.40;99.90;;;;;;5073066;28;20051;-69
2022/01/17 11:08:08;;;;;;;46.33;9.05;;;9.60;99.90;;;;;;5073199;28;20040;-69
2022/01/17 11:10:40;;;;;;;45.28;10.02;;;9.50;99.90;;;;;;5073773;28;20032;-70
2022/01/17 11:13:11;;;;;;;41.17;8.43;;;9.50;99.90;;;;;;5072761;28;20052;-70
2022/01/17 11:15:39;;;;;;;41.42;11.23;;;9.50;99.90;;;;;;5071936;28;20045;-70
2022/01/17 11:18:16;;;;;;;39.13;8.15;;;9.60;99.90;;;;;;5073279;28;20086;-69
2022/01/17 11:20:42;;;;;;;38.28;8.77;;;9.60;99.90;;;;;;5073421;28;20047;-69
2022/01/17 11:23:08;;;;;;;47.10;8.35;;;9.60;99.90;;;;;;5073572;28;20365;-69
2022/01/17 11:25:37;;;;;;;35.35;8.35;;;9.50;99.90;;;;;;5071813;28;20051;-70
2022/01/17 11:28:05;;;;;;;39.78;8.50;;;9.60;99.90;;;;;;5073371;28;20097;-70
2022/01/17 11:30:34;;;;;;;45.08;9.10;;;9.50;99.90;;;;;;5055870;28;20045;-70
2022/01/17 11:33:03;;;;;;;49.88;8.43;;;9.60;99.90;;;;;;5073257;28;20044;-70
2022/01/17 11:35:29;;;;;;;47.38;8.63;;;9.50;99.90;;;;;;5072342;28;20384;-70
2022/01/17 11:37:58;;;;;;;42.33;8.77;;;9.50;99.90;;;;;;5073203;28;20380;-70
2022/01/17 11:40:43;;;;;;;48.88;10.43;;;9.40;99.90;;;;;;5073541;28;20115;-69
2022/01/17 11:43:35;;;;;;;43.65;9.07;;;9.60;99.90;;;;;;5072809;28;20048;-69
2022/01/17 11:46:19;;;;;;;41.15;9.60;;;9.60;99.90;;;;;;5076723;28;20036;-69
2022/01/17 11:48:52;;;;;;;45.00;8.52;;;9.50;99.90;;;;;;5075512;28;20131;-69
2022/01/17 11:51:18;;;;;;;45.03;8.68;;;9.60;99.90;;;;;;5077073;28;20040;-69
2022/01/17 11:53:46;;;;;;;49.22;9.20;;;9.60;99.90;;;;;;5077119;28;20040;-70
2022/01/17 11:56:34;;;;;;;55.10;9.25;;;9.60;99.90;;;;;;5076351;28;20068;-70
2022/01/17 11:58:59;;;;;;;33.25;7.72;;;9.60;99.90;;;;;;5076681;28;20484;-70
2022/01/17 12:01:25;;;;;;;36.40;8.80;;;9.60;99.90;;;;;;5076729;28;20051;-70
2022/01/17 12:03:56;;;;;;;38.13;9.30;;;9.60;99.90;;;;;;5077134;28;20051;-70
2022/01/17 12:06:25;;;;;;;41.17;8.90;;;9.70;99.90;;;;;;5076565;28;20044;-70
2022/01/17 12:09:20;;;;;;;47.45;8.68;;;9.70;99.90;;;;;;5075866;28;20098;-68
2022/01/17 12:12:06;;;;;;;50.15;9.35;;;9.80;99.90;;;;;;5075680;28;20052;-69
2022/01/17 12:14:35;;;;;;;49.15;8.65;;;9.90;99.90;;;;;;5070673;28;20056;-69
2022/01/17 12:17:19;;;;;;;48.33;9.70;;;9.80;99.90;;;;;;5075336;28;20043;-69
2022/01/17 12:20:09;;;;;;;40.45;9.25;;;9.80;99.90;;;;;;5074578;28;20058;-69
2022/01/17 12:22:43;;;;;;;47.78;9.57;;;9.80;99.90;;;;;;5075278;28;20044;-70
2022/01/17 12:25:21;;;;;;;42.47;8.55;;;9.70;99.90;;;;;;5074905;28;20166;-69
2022/01/17 12:27:48;;;;;;;39.85;9.25;;;9.70;99.90;;;;;;5074222;28;20044;-70
2022/01/17 12:30:15;;;;;;;42.53;8.25;;;9.70;99.90;;;;;;5075699;28;20047;-69
2022/01/17 12:32:45;;;;;;;46.10;10.95;;;9.60;99.90;;;;;;5075191;28;20369;-70
2022/01/17 12:35:12;;;;;;;46.28;8.02;;;9.60;99.90;;;;;;5076213;28;20047;-67
2022/01/17 12:37:41;;;;;;;34.53;8.90;;;9.60;99.90;;;;;;5075411;28;20047;-69
2022/01/17 12:40:13;;;;;;;49.30;8.65;;;9.70;99.90;;;;;;5074363;28;20048;-69
2022/01/17 12:42:59;;;;;;;37.45;7.85;;;9.70;99.90;;;;;;5080711;28;20049;-69
2022/01/17 12:45:30;;;;;;;51.13;9.23;;;9.60;99.90;;;;;;5083498;28;20032;-68
2022/01/17 12:47:57;;;;;;;40.47;8.70;;;9.60;99.90;;;;;;5080703;28;20115;-69
2022/01/17 12:50:26;;;;;;;36.53;7.90;;;9.60;99.90;;;;;;5083869;28;20114;-70
2022/01/17 12:52:54;;;;;;;50.05;8.80;;;9.60;99.90;;;;;;5081291;28;20036;-69
2022/01/17 12:55:21;;;;;;;37.85;8.68;;;9.60;99.90;;;;;;5083125;28;20486;-69
2022/01/17 12:57:47;;;;;;;34.38;7.50;;;9.50;99.90;;;;;;5085990;28;20082;-69
2022/01/17 13:00:18;;;;;;;47.38;9.65;;;9.50;99.90;;;;;;5086271;28;20057;-69
2022/01/17 13:02:50;;;;;;;48.08;9.70;;;9.50;99.90;;;;;;5086216;28;20119;-69
2022/01/17 13:05:21;;;;;;;39.45;8.73;;;9.40;99.90;;;;;;5081746;28;20041;-70
2022/01/17 13:07:47;;;;;;;41.88;8.57;;;9.50;99.90;;;;;;5083704;28;20529;-69
2022/01/17 13:10:12;;;;;;;41.55;7.60;;;9.50;99.90;;;;;;5084390;28;20044;-70
2022/01/17 13:12:42;;;;;;;33.63;7.18;;;9.60;99.90;;;;;;5083803;28;20114;-69